Latest Weather Observations for Roma

IDQ60801

Issued at 2:35 pm EST Thursday 28 August 2014 (issued every 30 minutes, with the page automatically refreshed every 10 minutes)

About weather observations | Map of weather stations | Latest weather observations for QLD | Other Formats
Station Details ID: 043091 Name: ROMA AIRPORT Lat: -26.55 Lon: 148.77 Height: 307.38 m
Data from the previous 72 hours. | See also: Recent months at Roma
Date/Time
EST
Temp
°C
App
Temp
°C
Dew
Point
Rel
Hum
%
Delta-T
°C
Wind Press
QNH
hPa
Press
MSL
hPa
Rain
since 9 am
mm
Dir
 
Spd
km/h
Gust
km/h
Spd
kts
Gust
kts
28/02:30pm 22.1 17.3 4.6 32 8.7 SSW 19 26 10 14 1019.9 1019.7 0.0
28/02:00pm 21.9 16.9 4.5 32 8.6 S 20 24 11 13 1020.0 1019.8 0.0
28/01:30pm 21.6 17.7 7.1 39 7.6 S 17 26 9 14 1020.1 1019.9 0.0
28/01:00pm 20.8 16.7 6.4 39 7.3 S 17 24 9 13 1020.3 1020.2 0.0
28/12:30pm 20.6 17.1 7.2 42 7.0 S 15 33 8 18 1020.8 1020.6 0.0
28/12:00pm 19.3 14.9 6.4 43 6.5 SSE 19 28 10 15 1021.2 1021.0 0.0
28/11:30am 18.9 14.9 6.7 45 6.2 S 17 28 9 15 1021.7 1021.5 0.0
28/11:00am 18.7 14.0 7.8 49 5.6 S 22 32 12 17 1021.9 1021.7 0.0
28/10:30am 17.8 13.0 7.2 50 5.4 S 22 30 12 16 1022.1 1021.9 0.0
28/10:00am 17.0 12.2 7.4 53 4.9 S 22 32 12 17 1022.2 1022.0 0.0
28/09:30am 14.9 10.6 7.9 63 3.5 S 20 26 11 14 1022.3 1022.1 0.0
28/09:00am 13.5 9.5 8.1 70 2.7 S 19 26 10 14 1022.4 1022.2 0.0
28/08:30am 12.2 8.0 7.5 73 2.3 SSW 19 24 10 13 1022.2 1022.0 0.0
28/08:00am 10.7 7.7 7.8 82 1.4 SW 13 20 7 11 1021.9 1021.7 0.0
28/07:30am 9.4 6.6 7.0 85 1.1 WSW 11 15 6 8 1021.6 1021.4 0.0
28/07:00am 8.0 4.7 6.5 90 0.7 W 13 15 7 8 1021.3 1021.1 0.0
28/06:30am 6.8 3.3 5.4 91 0.6 W 13 15 7 8 1020.9 1020.7 0.0
28/06:00am 6.5 2.9 5.1 91 0.6 W 13 15 7 8 1020.6 1020.4 0.0
28/05:30am 6.8 5.4 5.4 91 0.6 WNW 2 7 1 4 1020.3 1020.2 0.0
28/05:00am 7.4 5.1 5.7 89 0.8 WSW 7 11 4 6 1019.8 1019.6 0.0
28/04:30am 7.4 4.3 5.7 89 0.8 W 11 15 6 8 1019.7 1019.5 0.0
28/04:00am 7.6 4.2 5.7 88 0.9 WSW 13 15 7 8 1019.6 1019.4 0.0
28/03:30am 8.7 5.0 6.5 86 1.0 WSW 15 24 8 13 1019.7 1019.5 0.0
28/03:00am 7.8 4.4 6.1 89 0.8 W 13 17 7 9 1019.8 1019.6 0.0
28/02:30am 8.0 4.2 6.0 87 0.9 WSW 15 15 8 8 1020.0 1019.8 0.0
28/02:00am 8.6 4.6 6.6 87 0.9 WSW 17 20 9 11 1020.2 1020.0 0.0
28/01:30am - - 6.3 - - SW 2 7 1 4 - 1016.3 -
28/01:00am 8.8 5.5 6.4 85 1.1 SW 13 15 7 8 1020.8 1020.6 0.0
28/12:30am 9.4 6.2 6.8 84 1.2 SW 13 17 7 9 1021.0 1020.8 0.0
28/12:00am 9.9 6.0 7.2 83 1.3 SSW 17 20 9 11 1021.0 1020.8 0.0
 
Date/Time
EST
Temp
°C
App
Temp
°C
Dew
Point
Rel
Hum
%
Delta-T
°C
Wind Press
QNH
hPa
Press
MSL
hPa
Rain
since 9 am
mm
Dir
 
Spd
km/h
Gust
km/h
Spd
kts
Gust
kts
27/11:30pm 10.1 7.0 7.2 82 1.4 SSW 13 17 7 9 1021.2 1021.0 0.0
27/11:00pm 10.4 6.6 7.5 82 1.4 SSW 17 20 9 11 1021.1 1020.9 0.0
27/10:30pm 10.0 6.7 6.5 79 1.7 SSW 13 17 7 9 1021.1 1020.9 0.0
27/10:00pm 10.7 7.0 6.5 75 2.0 SSW 15 19 8 10 1020.8 1020.6 0.0
27/09:30pm 11.2 7.1 6.3 72 2.3 SSW 17 20 9 11 1020.7 1020.5 0.0
27/09:00pm 11.6 8.0 6.7 72 2.4 SSW 15 22 8 12 1020.9 1020.7 0.0
27/08:30pm 10.2 8.2 7.1 81 1.5 WSW 7 9 4 5 1020.4 1020.3 0.0
27/08:00pm 9.4 7.2 6.3 81 1.5 WSW 7 9 4 5 1020.3 1020.2 0.0
27/07:30pm 9.1 5.9 5.3 77 1.7 W 11 17 6 9 1020.2 1020.0 0.0
27/07:00pm 9.4 6.2 5.2 75 1.9 W 11 11 6 6 1019.7 1019.5 0.0
27/06:30pm 10.2 6.8 5.8 74 2.1 W 13 15 7 8 1019.4 1019.2 0.0
27/06:00pm 10.6 7.6 6.0 73 2.2 SW 11 11 6 6 1019.3 1019.1 0.0
27/05:30pm 13.0 10.7 7.5 69 2.7 S 9 11 5 6 1019.2 1019.0 0.0
27/05:00pm 13.2 9.4 7.6 69 2.8 SSE 17 22 9 12 1018.7 1018.5 0.0
27/04:30pm 14.0 6.9 5.6 57 4.0 SSE 32 43 17 23 1018.6 1018.4 0.0
27/04:00pm 14.7 8.5 6.0 56 4.2 SSE 28 39 15 21 1018.0 1017.8 0.0
27/03:30pm 18.6 11.8 0.7 30 8.1 SSW 26 35 14 19 1016.9 1016.7 0.0
27/03:00pm 20.0 14.4 1.4 29 8.6 SW 20 32 11 17 1016.8 1016.6 0.0
27/02:30pm 19.6 13.3 1.6 30 8.3 SSW 24 37 13 20 1016.8 1016.6 0.0
27/02:00pm 18.6 12.2 0.7 30 8.0 SSW 24 33 13 18 1016.9 1016.7 0.0
27/01:30pm 17.8 11.8 0.9 32 7.6 SSW 22 35 12 19 1017.2 1016.9 0.0
27/01:00pm 19.4 13.4 0.9 29 8.4 SSW 22 32 12 17 1017.5 1017.2 0.0
27/12:30pm 19.4 13.3 0.4 28 8.6 S 22 32 12 17 1017.8 1017.6 0.0
27/12:00pm 18.4 11.9 0.5 30 8.0 SSE 24 32 13 17 1018.1 1017.9 0.0
27/11:30am 17.6 12.6 1.2 33 7.4 SSW 17 26 9 14 1018.6 1018.4 0.0
27/11:00am 17.1 12.9 1.9 36 6.9 SW 13 22 7 12 1018.9 1018.7 0.0
27/10:30am 17.1 11.9 2.3 37 6.8 WSW 19 32 10 17 1019.3 1019.1 0.0
27/10:00am 16.0 10.9 2.8 41 6.1 WSW 19 30 10 16 1019.5 1019.3 0.0
27/09:30am 15.3 11.0 3.5 45 5.5 WSW 15 26 8 14 1019.5 1019.3 0.0
27/09:00am 14.1 9.6 4.4 52 4.5 WSW 17 20 9 11 1019.4 1019.2 0.0
27/08:30am 12.1 7.6 4.1 58 3.7 W 17 22 9 12 1019.2 1019.0 0.0
27/08:00am 10.9 7.2 4.4 64 3.0 W 13 19 7 10 1019.2 1019.0 0.0
27/07:30am 7.1 4.8 4.6 84 1.1 N 6 7 3 4 1019.0 1018.8 0.0
27/07:00am 4.5 1.6 2.8 89 0.7 N 7 9 4 5 1018.8 1018.6 0.0
27/06:30am 3.2 0.3 1.7 90 0.6 NNE 6 7 3 4 1018.6 1018.4 0.0
27/06:00am 3.1 0.2 1.2 87 0.7 N 6 9 3 5 1018.2 1018.0 0.0
27/05:30am 3.2 0.1 1.6 89 0.6 N 7 9 4 5 1018.0 1017.8 0.0
27/05:00am 3.5 0.6 1.7 88 0.7 N 6 7 3 4 1018.1 1017.9 0.0
27/04:30am 3.6 1.9 2.0 89 0.6 CALM 0 6 0 3 1018.0 1017.8 0.0
27/04:00am 3.8 0.5 2.2 89 0.6 NW 9 9 5 5 1017.9 1017.7 0.0
27/03:30am 3.5 0.0 1.1 84 0.9 W 9 9 5 5 1017.8 1017.6 0.0
27/03:00am 4.8 2.1 2.7 86 0.9 NNW 6 9 3 5 1018.0 1017.8 0.0
27/02:30am 6.4 3.2 2.9 78 1.5 W 9 9 5 5 1018.2 1018.0 0.0
27/02:00am 6.4 2.7 2.3 75 1.7 WSW 11 11 6 6 1018.6 1018.4 0.0
27/01:30am 6.4 4.8 2.6 77 1.6 CALM 0 0 0 0 1018.8 1018.6 0.0
27/01:00am 6.8 4.5 2.7 75 1.7 WSW 4 9 2 5 1019.0 1018.8 0.0
27/12:30am 7.0 3.2 1.9 70 2.1 WSW 11 13 6 7 1019.2 1019.0 0.0
27/12:00am 7.4 3.4 2.7 72 2.0 SW 13 17 7 9 1019.2 1019.0 0.0
 
Date/Time
EST
Temp
°C
App
Temp
°C
Dew
Point
Rel
Hum
%
Delta-T
°C
Wind Press
QNH
hPa
Press
MSL
hPa
Rain
since 9 am
mm
Dir
 
Spd
km/h
Gust
km/h
Spd
kts
Gust
kts
26/11:30pm 6.8 2.9 1.1 67 2.3 SSW 11 13 6 7 1019.3 1019.1 0.0
26/11:00pm 7.6 3.3 1.2 64 2.6 WSW 13 13 7 7 1019.3 1019.1 0.0
26/10:30pm 8.8 4.5 1.0 58 3.2 SW 13 15 7 8 1019.4 1019.2 0.0
26/10:00pm 9.2 4.9 0.9 56 3.4 SW 13 15 7 8 1019.3 1019.1 0.0
26/09:30pm 10.1 5.3 0.4 51 4.0 SW 15 17 8 9 1019.2 1019.0 0.0
26/09:00pm 11.5 6.6 -0.3 44 4.9 SSW 15 17 8 9 1019.0 1018.8 0.0
26/08:30pm 12.1 6.8 -0.4 42 5.2 SSW 17 19 9 10 1018.7 1018.5 0.0
26/08:00pm 11.2 6.2 -1.2 42 5.0 SW 15 17 8 9 1018.5 1018.3 0.0
26/07:30pm 11.8 6.8 -1.3 40 5.3 SW 15 17 8 9 1018.3 1018.1 0.0
26/07:00pm 12.5 6.8 -1.1 39 5.6 SW 19 20 10 11 1018.0 1017.8 0.0
26/06:30pm 12.8 8.1 -1.5 37 5.8 SW 13 15 7 8 1017.7 1017.5 0.0
26/06:00pm 15.0 9.8 -2.4 30 7.1 SW 15 17 8 9 1017.3 1017.0 0.0
26/05:30pm 18.0 12.3 -4.0 22 8.9 SW 17 22 9 12 1017.1 1016.8 0.0
26/05:00pm 19.5 13.4 -4.0 20 9.7 WSW 19 24 10 13 1016.7 1016.5 0.0
26/04:30pm 19.9 13.7 -4.4 19 10.0 SSW 19 28 10 15 1016.7 1016.5 0.0
26/04:00pm 20.3 15.0 -3.4 20 10.0 WSW 15 19 8 10 1016.6 1016.4 0.0
26/03:30pm 20.6 15.0 -3.1 20 10.1 SW 17 26 9 14 1016.6 1016.4 0.0
26/03:00pm 21.0 14.9 -2.1 21 10.0 WSW 20 30 11 16 1016.5 1016.3 0.0
26/02:30pm 20.5 15.2 -0.7 24 9.4 SSW 17 26 9 14 1016.6 1016.4 0.0
26/02:00pm 20.7 15.5 0.0 25 9.3 WSW 17 28 9 15 1016.9 1016.7 0.0
26/01:30pm 20.9 16.2 0.7 26 9.3 WSW 15 24 8 13 1017.3 1017.0 0.0
26/01:00pm 19.6 14.6 1.1 29 8.4 W 17 26 9 14 1017.7 1017.5 0.0
26/12:30pm 20.4 16.3 2.3 30 8.5 W 13 20 7 11 1018.1 1017.9 0.0
26/12:00pm 18.9 14.5 2.7 34 7.6 SW 15 22 8 12 1018.7 1018.5 0.0
26/11:30am 18.9 15.1 3.9 37 7.2 W 13 20 7 11 1019.4 1019.2 0.0
26/11:00am 18.4 15.4 4.2 39 6.8 S 9 15 5 8 1019.8 1019.6 0.0
26/10:30am 17.8 15.0 5.1 43 6.2 S 9 13 5 7 1020.2 1020.0 0.0
26/10:00am 16.8 14.3 4.5 44 5.9 SSW 7 13 4 7 1020.4 1020.3 0.0
26/09:30am 15.9 12.9 4.3 46 5.5 SSW 9 17 5 9 1020.6 1020.4 0.0
26/09:00am 14.6 10.8 4.0 49 4.9 SW 13 17 7 9 1020.8 1020.6 0.0
26/08:30am 13.5 9.7 4.1 53 4.4 WSW 13 17 7 9 1020.8 1020.6 0.0
26/08:00am 11.9 8.4 3.4 56 3.8 W 11 15 6 8 1020.7 1020.5 0.0
26/07:30am 9.8 6.4 4.0 67 2.6 WSW 11 15 6 8 1020.6 1020.4 0.0
26/07:00am 6.4 3.9 4.9 90 0.7 WNW 7 9 4 5 1020.2 1020.0 0.0
26/06:30am 4.7 1.9 2.9 88 0.7 WNW 7 9 4 5 1019.9 1019.7 0.0
26/06:00am 5.1 3.7 3.6 90 0.6 CALM 0 0 0 0 1019.6 1019.4 0.0
26/05:30am 4.9 2.7 3.1 88 0.8 W 4 6 2 3 1019.4 1019.2 0.0
26/05:00am 5.8 3.1 3.5 85 1.0 W 7 9 4 5 1019.1 1018.9 0.0
26/04:30am 6.1 3.6 3.9 86 1.0 NW 6 6 3 3 1019.1 1018.9 0.0
26/04:00am 6.3 3.3 4.0 85 1.0 W 9 9 5 5 1019.2 1019.0 0.0
26/03:30am 6.2 3.6 3.2 81 1.3 W 6 9 3 5 1019.2 1019.0 0.0
26/03:00am 6.9 4.5 4.2 83 1.2 WNW 6 7 3 4 1019.4 1019.2 0.0
26/02:30am 6.9 4.9 4.4 84 1.1 NNW 4 7 2 4 1019.5 1019.3 0.0
26/02:00am 7.0 4.4 4.1 82 1.3 NW 7 9 4 5 1019.8 1019.6 0.0
26/01:30am 7.1 4.1 3.9 80 1.4 W 9 17 5 9 1020.2 1020.0 0.0
26/01:00am 7.7 5.5 5.2 84 1.1 N 6 7 3 4 1020.3 1020.2 0.0
26/12:30am 8.2 6.0 5.5 83 1.2 N 6 7 3 4 1020.6 1020.4 0.0
26/12:00am 9.0 7.3 3.8 70 2.3 N 2 6 1 3 1020.7 1020.5 0.0
 
Date/Time
EST
Temp
°C
App
Temp
°C
Dew
Point
Rel
Hum
%
Delta-T
°C
Wind Press
QNH
hPa
Press
MSL
hPa
Rain
since 9 am
mm
Dir
 
Spd
km/h
Gust
km/h
Spd
kts
Gust
kts
25/11:30pm 9.4 7.2 5.2 75 1.9 N 6 7 3 4 1021.0 1020.8 0.0
25/11:00pm 9.9 7.5 4.1 67 2.6 WNW 6 9 3 5 1021.0 1020.8 0.0
25/10:30pm 11.2 9.8 3.3 58 3.5 CALM 0 0 0 0 1021.2 1021.0 0.0
25/10:00pm 10.7 6.8 3.5 61 3.2 SW 13 15 7 8 1021.3 1021.1 0.0
25/09:30pm 11.4 7.2 3.9 60 3.4 SW 15 17 8 9 1021.5 1021.3 0.0
25/09:00pm 11.4 7.6 3.7 59 3.5 SW 13 15 7 8 1021.4 1021.2 0.0
25/08:30pm 11.5 7.7 4.0 60 3.4 SW 13 15 7 8 1021.3 1021.1 0.0
25/08:00pm 12.6 9.2 3.8 55 4.0 SSW 11 13 6 7 1021.3 1021.1 0.0
25/07:30pm 13.4 10.0 3.8 52 4.4 SSW 11 13 6 7 1021.2 1021.0 0.0
25/07:00pm 14.1 10.9 3.3 48 4.9 S 9 11 5 6 1021.0 1020.8 0.0
25/06:30pm 15.0 11.8 3.2 45 5.4 SSW 9 11 5 6 1020.6 1020.4 0.0
25/06:00pm 17.7 13.9 1.7 34 7.3 S 11 15 6 8 1020.3 1020.2 0.0
25/05:30pm 20.3 14.7 1.2 28 8.8 S 20 28 11 15 1020.2 1020.0 0.0
25/05:00pm 21.4 15.7 0.6 25 9.5 SSW 20 30 11 16 1020.0 1019.8 0.0
25/04:30pm 22.0 15.5 0.5 24 9.9 SSW 24 35 13 19 1019.8 1019.6 0.0
25/04:00pm 22.3 16.4 1.9 26 9.7 S 22 30 12 16 1019.8 1019.6 0.0
25/03:30pm 22.4 16.5 1.4 25 9.9 SSW 22 35 12 19 1020.0 1019.8 0.0
25/03:00pm 22.6 16.1 2.7 27 9.6 SSW 26 35 14 19 1020.1 1019.9 0.0
25/02:57pm 22.8 15.6 2.8 27 9.7 SSW 30 35 16 19 1020.1 1019.9 0.0

Other Formats:

Comma delimited format used in spreadsheet applications
http://www.bom.gov.au/fwo/IDQ60801/IDQ60801.94515.axf

JavaScript Object Notation format (JSON) in row-major order
http://www.bom.gov.au/fwo/IDQ60801/IDQ60801.94515.json